createdAt,value
2023-11-18T00:01:12.172Z,0.80
2023-11-18T00:03:41.023Z,0.67
2023-11-18T00:06:10.290Z,0.90
2023-11-18T00:08:40.590Z,0.80
2023-11-18T00:11:10.371Z,0.70
2023-11-18T00:13:40.184Z,0.70
2023-11-18T00:16:13.357Z,0.60
2023-11-18T00:18:42.225Z,0.70
2023-11-18T00:21:11.337Z,0.87
2023-11-18T00:23:41.354Z,0.70
2023-11-18T00:26:11.605Z,0.57
2023-11-18T00:28:41.378Z,0.80
2023-11-18T00:31:10.043Z,0.50
2023-11-18T00:33:39.632Z,0.60
2023-11-18T00:36:09.618Z,0.67
2023-11-18T00:38:38.354Z,0.80
2023-11-18T00:41:10.517Z,0.77
2023-11-18T00:43:39.280Z,0.67
2023-11-18T00:46:07.998Z,0.83
2023-11-18T00:48:36.619Z,0.70
2023-11-18T00:51:05.684Z,0.47
2023-11-18T00:53:34.424Z,0.70
2023-11-18T00:56:03.757Z,0.73
2023-11-18T00:58:35.373Z,0.73
2023-11-18T01:01:05.096Z,0.87
2023-11-18T01:03:35.393Z,0.60
2023-11-18T01:06:04.230Z,0.60
2023-11-18T01:08:32.779Z,0.50
2023-11-18T01:11:01.447Z,0.73
2023-11-18T01:13:30.160Z,0.80
2023-11-18T01:16:00.398Z,0.60
2023-11-18T01:18:29.122Z,0.70
2023-11-18T01:20:58.693Z,0.93
2023-11-18T01:23:27.389Z,0.80
2023-11-18T01:25:57.312Z,0.60
2023-11-18T01:28:27.663Z,0.80
2023-11-18T01:30:57.143Z,0.90
2023-11-18T01:33:27.772Z,0.67
2023-11-18T01:35:56.437Z,0.70
2023-11-18T01:38:25.873Z,1.07
2023-11-18T01:40:57.963Z,1.00
2023-11-18T01:43:26.977Z,1.00
2023-11-18T01:45:55.778Z,0.70
2023-11-18T01:48:28.173Z,0.77
2023-11-18T01:51:00.275Z,1.10
2023-11-18T01:53:29.321Z,0.73
2023-11-18T01:56:00.502Z,0.80
2023-11-18T01:58:32.343Z,0.80
2023-11-18T02:01:01.252Z,0.70
2023-11-18T02:03:31.469Z,0.50
2023-11-18T02:06:01.637Z,0.50
2023-11-18T02:08:30.930Z,0.50
2023-11-18T02:11:13.036Z,0.70
2023-11-18T02:13:45.928Z,0.90
2023-11-18T02:16:15.743Z,0.60
2023-11-18T02:18:45.512Z,0.70
2023-11-18T02:21:16.525Z,0.80
2023-11-18T02:23:45.427Z,0.70
2023-11-18T02:26:23.783Z,0.70
2023-11-18T02:28:53.898Z,0.80
2023-11-18T02:31:33.622Z,0.50
2023-11-18T02:34:07.633Z,0.83
2023-11-18T02:36:43.250Z,0.83
2023-11-18T02:39:18.711Z,0.73
2023-11-18T02:41:53.930Z,0.60
2023-11-18T02:44:26.844Z,0.70
2023-11-18T02:46:55.782Z,0.70
2023-11-18T02:49:25.219Z,0.90
2023-11-18T02:51:56.476Z,0.83
2023-11-18T02:54:25.492Z,0.80
2023-11-18T02:56:56.000Z,0.80
2023-11-18T02:59:24.728Z,0.80
2023-11-18T03:01:57.285Z,0.90
2023-11-18T03:04:26.851Z,1.20
2023-11-18T03:06:55.516Z,2.83
2023-11-18T03:09:29.060Z,2.50
2023-11-18T03:12:00.701Z,2.27
2023-11-18T03:14:29.940Z,3.30
2023-11-18T03:16:59.732Z,2.70
2023-11-18T03:19:28.342Z,2.87
2023-11-18T03:21:57.394Z,2.20
2023-11-18T03:24:26.465Z,2.70
2023-11-18T03:26:56.300Z,3.17
2023-11-18T03:29:26.410Z,2.90
2023-11-18T03:31:55.143Z,3.30
2023-11-18T03:34:24.100Z,4.60
2023-11-18T03:36:53.606Z,5.17
2023-11-18T03:39:22.443Z,4.57
2023-11-18T03:41:51.199Z,5.07
2023-11-18T03:44:19.935Z,4.87
2023-11-18T03:46:49.907Z,3.50
2023-11-18T03:49:19.075Z,2.80
2023-11-18T03:51:48.340Z,2.80
2023-11-18T03:54:16.977Z,2.60
2023-11-18T03:56:45.667Z,2.33
2023-11-18T03:59:14.327Z,2.47
2023-11-18T04:01:43.112Z,2.40
2023-11-18T04:04:16.358Z,1.57
2023-11-18T04:06:45.215Z,1.10
2023-11-18T04:09:14.258Z,0.80
2023-11-18T04:11:42.929Z,0.50
2023-11-18T04:14:11.984Z,0.47
2023-11-18T04:16:40.778Z,0.43
2023-11-18T04:19:09.567Z,0.50
2023-11-18T04:21:39.658Z,0.40
2023-11-18T04:24:09.419Z,0.43
2023-11-18T04:26:38.238Z,0.33
2023-11-18T04:29:06.877Z,0.40
2023-11-18T04:31:35.859Z,0.40
2023-11-18T04:34:05.432Z,0.30
2023-11-18T04:36:34.383Z,0.50
2023-11-18T04:39:05.192Z,0.30
2023-11-18T04:41:34.022Z,0.40
2023-11-18T04:44:02.722Z,0.50
2023-11-18T04:46:31.494Z,0.43
2023-11-18T04:49:00.146Z,0.50
2023-11-18T04:51:28.979Z,0.60
2023-11-18T04:53:57.668Z,0.50
2023-11-18T04:56:27.666Z,0.50
2023-11-18T04:58:56.423Z,0.50
2023-11-18T05:01:25.099Z,0.70
2023-11-18T05:03:53.857Z,0.60
2023-11-18T05:06:22.530Z,0.73
2023-11-18T05:08:51.256Z,0.80
2023-11-18T05:11:19.934Z,0.70
2023-11-18T05:13:50.683Z,0.70
2023-11-18T05:16:19.467Z,0.93
2023-11-18T05:18:48.140Z,0.90
2023-11-18T05:21:17.679Z,0.97
2023-11-18T05:23:46.315Z,1.00
2023-11-18T05:26:14.892Z,0.90
2023-11-18T05:28:45.480Z,0.97
2023-11-18T05:31:15.600Z,0.80
2023-11-18T05:33:44.203Z,1.00
2023-11-18T05:36:12.986Z,1.27
2023-11-18T05:38:43.561Z,1.00
2023-11-18T05:41:18.110Z,1.03
2023-11-18T05:43:52.909Z,1.03
2023-11-18T05:46:24.169Z,1.37
2023-11-18T05:48:54.129Z,1.20
2023-11-18T05:51:25.097Z,1.10
2023-11-18T05:53:55.121Z,1.30
2023-11-18T05:56:25.028Z,1.13
2023-11-18T05:58:55.771Z,1.20
2023-11-18T06:01:28.795Z,1.53
2023-11-18T06:03:59.320Z,1.00
2023-11-18T06:06:28.210Z,1.20
2023-11-18T06:08:59.184Z,1.30
2023-11-18T06:11:27.906Z,1.60
2023-11-18T06:13:59.161Z,1.47
2023-11-18T06:16:30.287Z,1.23
2023-11-18T06:19:00.310Z,1.40
2023-11-18T06:21:31.852Z,1.00
2023-11-18T06:24:05.306Z,1.40
2023-11-18T06:26:37.535Z,1.20
2023-11-18T06:29:07.358Z,1.40
2023-11-18T06:31:42.352Z,1.37
2023-11-18T06:34:11.350Z,1.20
2023-11-18T06:36:40.140Z,1.37
2023-11-18T06:39:09.389Z,1.30
2023-11-18T06:41:49.373Z,2.60
2023-11-18T06:44:25.431Z,1.23
2023-11-18T06:46:55.932Z,1.70
2023-11-18T06:49:26.777Z,1.40
2023-11-18T06:51:55.356Z,1.43
2023-11-18T06:54:25.543Z,1.70
2023-11-18T06:56:56.628Z,1.47
2023-11-18T06:59:25.429Z,1.50
2023-11-18T07:01:55.418Z,1.63
2023-11-18T07:04:24.150Z,1.63
2023-11-18T07:06:52.899Z,1.90
2023-11-18T07:09:22.467Z,1.80
2023-11-18T07:11:52.755Z,1.90
2023-11-18T07:14:21.735Z,1.90
2023-11-18T07:16:50.500Z,1.87
2023-11-18T07:19:22.689Z,1.83
2023-11-18T07:21:52.396Z,1.70
2023-11-18T07:24:22.028Z,1.57
2023-11-18T07:26:53.035Z,1.80
2023-11-18T07:29:22.257Z,1.50
2023-11-18T07:31:50.978Z,1.50
2023-11-18T07:34:25.094Z,1.37
2023-11-18T07:36:57.090Z,1.33
2023-11-18T07:39:45.514Z,1.83
2023-11-18T07:42:15.058Z,1.60
2023-11-18T07:44:43.855Z,2.10
2023-11-18T07:47:13.026Z,2.30
2023-11-18T07:49:43.107Z,1.40
2023-11-18T07:52:11.962Z,1.50
2023-11-18T07:54:40.563Z,1.80
2023-11-18T07:57:11.981Z,2.00
2023-11-18T07:59:42.126Z,1.70
2023-11-18T08:02:12.303Z,1.60
2023-11-18T08:04:43.157Z,1.27
2023-11-18T08:07:12.389Z,1.50
2023-11-18T08:09:41.121Z,1.40
2023-11-18T08:12:10.557Z,1.70
2023-11-18T08:14:39.323Z,1.90
2023-11-18T08:17:08.046Z,2.13
2023-11-18T08:19:37.158Z,1.77
2023-11-18T08:22:10.501Z,1.63
2023-11-18T08:24:39.709Z,2.10
2023-11-18T08:27:08.434Z,2.13
2023-11-18T08:29:37.121Z,1.90
2023-11-18T08:32:06.683Z,2.00
2023-11-18T08:34:37.220Z,1.77
2023-11-18T08:37:07.734Z,1.40
2023-11-18T08:39:36.857Z,1.53
2023-11-18T08:42:08.873Z,1.50
2023-11-18T08:44:39.955Z,1.50
2023-11-18T08:47:10.048Z,1.40
2023-11-18T08:49:38.808Z,1.40
2023-11-18T08:52:11.347Z,1.40
2023-11-18T08:55:02.419Z,1.30
2023-11-18T08:57:49.449Z,1.13
2023-11-18T09:00:40.506Z,1.43
2023-11-18T09:03:09.318Z,1.50
2023-11-18T09:05:37.979Z,1.70
2023-11-18T09:08:08.302Z,1.13
2023-11-18T09:10:37.145Z,1.20
2023-11-18T09:13:07.009Z,1.50
2023-11-18T09:15:38.299Z,1.13
2023-11-18T09:18:11.346Z,1.23
2023-11-18T09:20:41.087Z,1.40
2023-11-18T09:23:11.156Z,1.20
2023-11-18T09:25:41.785Z,1.20
2023-11-18T09:28:11.655Z,1.40
2023-11-18T09:30:50.640Z,1.30
2023-11-18T09:33:27.041Z,1.10
2023-11-18T09:36:00.044Z,1.40
2023-11-18T09:38:32.159Z,1.30
2023-11-18T09:41:04.158Z,1.50
2023-11-18T09:43:37.657Z,1.30
2023-11-18T09:46:14.094Z,1.30
2023-11-18T09:48:48.631Z,1.00
2023-11-18T09:51:22.388Z,1.30
2023-11-18T09:53:55.122Z,1.20
2023-11-18T09:56:39.932Z,1.20
2023-11-18T09:59:20.984Z,0.80
2023-11-18T10:01:56.071Z,1.50
2023-11-18T10:04:29.089Z,1.53
2023-11-18T10:06:58.741Z,1.00
2023-11-18T10:09:30.533Z,0.77
2023-11-18T10:12:08.914Z,1.07
2023-11-18T10:14:40.944Z,1.20
2023-11-18T10:17:09.332Z,1.37
2023-11-18T10:19:57.342Z,1.20
2023-11-18T10:22:28.049Z,1.50
2023-11-18T10:24:59.185Z,1.40
2023-11-18T10:27:29.967Z,1.07
2023-11-18T10:29:59.070Z,1.40
2023-11-18T10:32:29.889Z,1.50
2023-11-18T10:34:59.615Z,1.30
2023-11-18T10:37:32.750Z,0.93
2023-11-18T10:40:09.862Z,1.30
2023-11-18T10:42:38.500Z,1.27
2023-11-18T10:45:08.032Z,1.03
2023-11-18T10:47:40.538Z,1.00
2023-11-18T10:50:11.712Z,0.70
2023-11-18T10:52:42.743Z,1.00
2023-11-18T10:55:14.279Z,0.80
2023-11-18T10:57:44.052Z,0.93
2023-11-18T11:00:16.592Z,1.10
2023-11-18T11:02:45.761Z,1.10
2023-11-18T11:05:21.156Z,0.80
2023-11-18T11:07:51.705Z,1.13
2023-11-18T11:10:26.789Z,0.80
2023-11-18T11:12:58.721Z,0.83
2023-11-18T11:15:44.378Z,0.80
2023-11-18T11:18:29.502Z,1.10
2023-11-18T11:21:12.321Z,0.80
2023-11-18T11:23:55.431Z,1.00
2023-11-18T11:26:41.611Z,1.10
2023-11-18T11:29:29.731Z,1.00
2023-11-18T11:32:14.423Z,1.10
2023-11-18T11:34:48.762Z,1.20
2023-11-18T11:37:18.090Z,1.07
2023-11-18T11:39:49.351Z,1.10
2023-11-18T11:42:22.319Z,1.10
2023-11-18T11:44:54.575Z,1.50
2023-11-18T11:47:24.788Z,1.10
2023-11-18T11:50:02.235Z,0.93
2023-11-18T11:52:33.654Z,1.37
2023-11-18T11:55:13.555Z,1.10
2023-11-18T11:57:46.133Z,1.17
2023-11-18T12:00:20.104Z,1.10
2023-11-18T12:02:51.782Z,1.17
2023-11-18T12:05:26.018Z,1.00
2023-11-18T12:07:57.143Z,1.40
2023-11-18T12:10:32.696Z,1.33
2023-11-18T12:13:18.204Z,1.20
2023-11-18T12:15:58.949Z,1.30
2023-11-18T12:18:28.343Z,1.10
2023-11-18T12:20:57.799Z,1.13
2023-11-18T12:23:27.269Z,1.00
2023-11-18T12:25:58.422Z,1.00
2023-11-18T12:28:36.472Z,1.17
2023-11-18T12:31:18.607Z,1.20
2023-11-18T12:34:11.316Z,1.10
2023-11-18T12:37:28.348Z,1.10
2023-11-18T12:40:30.276Z,1.30
2023-11-18T12:43:06.716Z,1.40
2023-11-18T12:46:33.188Z,1.90
2023-11-18T12:49:06.115Z,1.10
2023-11-18T12:51:38.060Z,0.93
2023-11-18T12:54:08.445Z,1.03
2023-11-18T12:56:37.409Z,1.40
2023-11-18T12:59:07.824Z,1.10
2023-11-18T13:01:38.582Z,1.10
2023-11-18T13:04:08.663Z,1.10
2023-11-18T13:06:37.618Z,1.50
2023-11-18T13:09:11.128Z,1.43
2023-11-18T13:11:43.989Z,1.30
2023-11-18T13:14:13.561Z,1.50
2023-11-18T13:16:43.839Z,1.30
2023-11-18T13:19:12.739Z,1.23
2023-11-18T13:21:42.894Z,1.10
2023-11-18T13:24:11.843Z,1.20
2023-11-18T13:26:40.473Z,1.10
2023-11-18T13:29:09.446Z,1.20
2023-11-18T13:31:39.772Z,1.00
2023-11-18T13:34:12.085Z,0.90
2023-11-18T13:36:41.346Z,0.90
2023-11-18T13:39:17.737Z,1.07
2023-11-18T13:41:47.329Z,1.20
2023-11-18T13:44:35.283Z,1.40
2023-11-18T13:47:06.588Z,1.60
2023-11-18T13:49:37.025Z,1.33
2023-11-18T13:52:08.383Z,1.57
2023-11-18T13:54:38.268Z,1.17
2023-11-18T13:57:07.992Z,1.50
2023-11-18T13:59:38.330Z,1.23
2023-11-18T14:02:08.143Z,0.90
2023-11-18T14:04:38.573Z,0.97
2023-11-18T14:07:07.371Z,1.20
2023-11-18T14:09:41.496Z,1.23
2023-11-18T14:12:11.238Z,1.30
2023-11-18T14:14:40.659Z,1.07
2023-11-18T14:17:11.740Z,1.00
2023-11-18T14:19:43.137Z,1.40
2023-11-18T14:22:12.066Z,1.33
2023-11-18T14:24:43.761Z,1.17
2023-11-18T14:27:12.427Z,1.50
2023-11-18T14:29:41.002Z,2.10
2023-11-18T14:32:09.694Z,1.60
2023-11-18T14:34:39.577Z,1.40
2023-11-18T14:37:10.213Z,1.47
2023-11-18T14:39:38.854Z,1.40
2023-11-18T14:42:07.940Z,1.20
2023-11-18T14:44:37.836Z,1.50
2023-11-18T14:47:08.517Z,1.57
2023-11-18T14:49:37.229Z,1.33
2023-11-18T14:52:06.334Z,2.00
2023-11-18T14:54:37.290Z,1.80
2023-11-18T14:57:06.673Z,1.73
2023-11-18T14:59:35.299Z,1.50
2023-11-18T15:02:04.621Z,1.87
2023-11-18T15:04:33.660Z,1.90
2023-11-18T15:07:03.037Z,1.60
2023-11-18T15:09:33.263Z,2.07
2023-11-18T15:12:04.751Z,1.77
2023-11-18T15:14:33.961Z,2.27
2023-11-18T15:17:02.727Z,2.20
2023-11-18T15:19:34.366Z,2.87
2023-11-18T15:22:03.005Z,2.13
2023-11-18T15:24:33.633Z,2.87
2023-11-18T15:27:05.003Z,2.37
2023-11-18T15:29:39.765Z,2.70
2023-11-18T15:32:09.690Z,2.87
2023-11-18T15:34:38.941Z,2.70
2023-11-18T15:37:07.682Z,2.80
2023-11-18T15:39:36.308Z,2.60
2023-11-18T15:42:07.306Z,3.20
2023-11-18T15:44:35.934Z,3.03
2023-11-18T15:47:04.674Z,3.80
2023-11-18T15:49:34.157Z,3.33
2023-11-18T15:52:03.777Z,3.50
2023-11-18T15:54:32.371Z,3.40
2023-11-18T15:57:01.106Z,3.73
2023-11-18T15:59:32.055Z,3.40
2023-11-18T16:02:00.627Z,3.93
2023-11-18T16:04:29.306Z,3.70
2023-11-18T16:06:57.914Z,3.80
2023-11-18T16:09:26.901Z,3.97
2023-11-18T16:11:55.503Z,4.00
2023-11-18T16:14:24.528Z,3.60
2023-11-18T16:16:54.758Z,4.20
2023-11-18T16:19:23.430Z,4.60
2023-11-18T16:21:53.688Z,4.70
2023-11-18T16:24:22.447Z,4.13
2023-11-18T16:26:51.541Z,4.27
2023-11-18T16:29:20.318Z,4.60
2023-11-18T16:31:50.172Z,4.23
2023-11-18T16:34:21.339Z,4.30
2023-11-18T16:36:50.857Z,4.10
2023-11-18T16:39:19.609Z,4.43
2023-11-18T16:41:48.196Z,4.70
2023-11-18T16:44:17.456Z,4.17
2023-11-18T16:46:47.033Z,4.63
2023-11-18T16:49:18.179Z,3.67
2023-11-18T16:51:53.946Z,3.97
2023-11-18T16:54:35.697Z,3.47
2023-11-18T16:57:08.093Z,3.60
2023-11-18T16:59:36.988Z,3.80
2023-11-18T17:02:07.260Z,3.13
2023-11-18T17:04:38.214Z,3.43
2023-11-18T17:07:08.563Z,4.30
2023-11-18T17:09:37.121Z,5.50
2023-11-18T17:12:06.815Z,6.13
2023-11-18T17:14:35.548Z,6.07
2023-11-18T17:17:05.741Z,5.63
2023-11-18T17:19:35.480Z,5.00
2023-11-18T17:22:06.008Z,5.77
2023-11-18T17:24:36.334Z,4.83
2023-11-18T17:27:08.132Z,4.10
2023-11-18T17:29:38.595Z,4.30
2023-11-18T17:32:07.853Z,4.77
2023-11-18T17:34:37.541Z,4.50
2023-11-18T17:37:06.413Z,3.73
2023-11-18T17:39:36.387Z,2.90
2023-11-18T17:42:05.165Z,3.00
2023-11-18T17:44:33.947Z,2.87
2023-11-18T17:47:03.260Z,2.57
2023-11-18T17:49:32.725Z,3.10
2023-11-18T17:52:01.690Z,8.77
2023-11-18T17:54:30.342Z,2.90
2023-11-18T17:57:03.519Z,2.63
2023-11-18T17:59:32.235Z,2.73
2023-11-18T18:02:03.462Z,2.70
2023-11-18T18:04:32.098Z,3.70
2023-11-18T18:07:01.424Z,3.97
2023-11-18T18:09:30.106Z,3.63
2023-11-18T18:12:00.214Z,3.17
2023-11-18T18:14:28.822Z,3.40
2023-11-18T18:16:58.594Z,3.27
2023-11-18T18:19:28.021Z,3.17
2023-11-18T18:21:56.757Z,4.80
2023-11-18T18:24:25.439Z,3.90
2023-11-18T18:26:54.755Z,4.20
2023-11-18T18:29:24.973Z,4.93
2023-11-18T18:31:53.659Z,4.27
2023-11-18T18:34:22.332Z,3.83
2023-11-18T18:36:50.901Z,4.33
2023-11-18T18:39:19.529Z,5.63
2023-11-18T18:41:48.202Z,5.43
2023-11-18T18:44:16.920Z,3.70
2023-11-18T18:46:48.280Z,5.43
2023-11-18T18:49:18.589Z,4.20
2023-11-18T18:51:47.268Z,5.20
2023-11-18T18:54:16.148Z,5.50
2023-11-18T18:56:44.816Z,6.50
2023-11-18T18:59:13.515Z,8.30
2023-11-18T19:01:46.024Z,7.23
2023-11-18T19:04:16.234Z,5.70
2023-11-18T19:06:44.940Z,11.83
2023-11-18T19:09:13.871Z,5.07
2023-11-18T19:11:42.780Z,6.80
2023-11-18T19:14:11.888Z,6.00
2023-11-18T19:16:43.442Z,6.40
2023-11-18T19:19:13.356Z,9.70
2023-11-18T19:21:43.387Z,6.57
2023-11-18T19:24:14.325Z,6.73
2023-11-18T19:26:43.003Z,7.00
2023-11-18T19:29:11.621Z,7.53
2023-11-18T19:31:40.342Z,6.73
2023-11-18T19:34:09.065Z,6.23
2023-11-18T19:36:38.042Z,5.97
2023-11-18T19:39:11.327Z,7.40
2023-11-18T19:41:41.784Z,5.87
2023-11-18T19:44:10.524Z,6.33
2023-11-18T19:46:39.234Z,5.77
2023-11-18T19:49:07.873Z,5.37
2023-11-18T19:51:36.608Z,6.00
2023-11-18T19:54:05.342Z,5.47
2023-11-18T19:56:35.430Z,4.37
2023-11-18T19:59:05.941Z,4.30
2023-11-18T20:01:34.854Z,4.53
2023-11-18T20:04:03.488Z,4.23
2023-11-18T20:06:32.102Z,4.77
2023-11-18T20:09:00.881Z,4.60
2023-11-18T20:11:32.345Z,5.20
2023-11-18T20:14:02.629Z,6.23
2023-11-18T20:16:31.343Z,5.03
2023-11-18T20:19:00.549Z,5.90
2023-11-18T20:21:29.343Z,5.83
2023-11-18T20:23:58.027Z,6.60
2023-11-18T20:26:30.645Z,4.50
2023-11-18T20:28:59.499Z,4.60
2023-11-18T20:31:29.487Z,5.03
2023-11-18T20:33:58.233Z,5.00
2023-11-18T20:36:26.846Z,6.50
2023-11-18T20:38:57.989Z,6.37
2023-11-18T20:41:28.651Z,7.33
2023-11-18T20:43:57.764Z,7.37
2023-11-18T20:46:26.663Z,6.63
2023-11-18T20:48:56.990Z,6.17
2023-11-18T20:51:26.466Z,6.60
2023-11-18T20:53:55.100Z,6.40
2023-11-18T20:56:24.071Z,5.80
2023-11-18T20:58:52.774Z,5.77
2023-11-18T21:01:21.694Z,5.40
2023-11-18T21:03:50.866Z,5.00
2023-11-18T21:06:22.205Z,5.70
2023-11-18T21:08:52.389Z,5.60
2023-11-18T21:11:25.632Z,6.50
2023-11-18T21:13:54.579Z,8.23
2023-11-18T21:16:23.169Z,6.10
2023-11-18T21:18:52.017Z,6.70
2023-11-18T21:21:23.053Z,6.70
2023-11-18T21:23:51.805Z,6.53
2023-11-18T21:26:21.583Z,6.10
2023-11-18T21:28:50.257Z,9.03
2023-11-18T21:31:18.842Z,6.50
2023-11-18T21:33:47.683Z,7.87
2023-11-18T21:36:16.301Z,6.53
2023-11-18T21:38:53.474Z,6.30
2023-11-18T21:41:23.044Z,5.07
2023-11-18T21:43:51.690Z,6.17
2023-11-18T21:46:21.698Z,5.37
2023-11-18T21:48:50.524Z,5.80
2023-11-18T21:51:21.281Z,5.23
2023-11-18T21:53:51.800Z,6.97
2023-11-18T21:56:21.661Z,5.00
2023-11-18T21:58:50.331Z,4.53
2023-11-18T22:01:19.053Z,5.17
2023-11-18T22:03:47.813Z,4.43
2023-11-18T22:06:16.592Z,4.17
2023-11-18T22:08:45.230Z,4.20
2023-11-18T22:11:20.602Z,4.60
2023-11-18T22:13:49.793Z,4.10
2023-11-18T22:16:20.485Z,3.17
2023-11-18T22:18:50.691Z,3.57
2023-11-18T22:21:21.887Z,3.80
2023-11-18T22:23:50.780Z,3.50
2023-11-18T22:26:23.393Z,3.33
2023-11-18T22:28:52.036Z,4.30
2023-11-18T22:31:21.862Z,4.40
2023-11-18T22:33:51.562Z,4.50
2023-11-18T22:36:20.250Z,4.43
2023-11-18T22:38:48.834Z,5.53
2023-11-18T22:41:17.443Z,4.70
2023-11-18T22:43:48.966Z,4.83
2023-11-18T22:46:17.673Z,5.40
2023-11-18T22:48:47.157Z,5.40
2023-11-18T22:51:18.343Z,4.50
2023-11-18T22:53:47.466Z,4.00
2023-11-18T22:56:18.721Z,4.30
2023-11-18T22:58:51.198Z,3.10
2023-11-18T23:01:21.488Z,3.23
2023-11-18T23:03:50.181Z,2.87
2023-11-18T23:06:22.309Z,2.67
2023-11-18T23:08:52.213Z,2.70
2023-11-18T23:11:21.083Z,2.30
2023-11-18T23:13:51.844Z,2.90
2023-11-18T23:16:20.905Z,2.87
2023-11-18T23:18:51.214Z,3.63
2023-11-18T23:21:19.912Z,3.37
2023-11-18T23:23:50.225Z,3.40
2023-11-18T23:26:20.444Z,3.73
2023-11-18T23:28:51.133Z,3.40
2023-11-18T23:31:19.916Z,3.40
2023-11-18T23:33:48.633Z,3.60
2023-11-18T23:36:18.904Z,3.07
2023-11-18T23:38:47.841Z,2.90
2023-11-18T23:41:17.636Z,2.30
2023-11-18T23:43:52.046Z,2.70
2023-11-18T23:46:20.830Z,2.87
2023-11-18T23:48:49.467Z,3.43
2023-11-18T23:51:19.739Z,2.77
2023-11-18T23:53:48.263Z,2.90
2023-11-18T23:56:19.144Z,3.17
2023-11-18T23:58:47.738Z,3.17
